Time;durP1;ratioP1;P1;durP2;ratioP2;P2;SDS_P1;SDS_P2;PMS_P1;PMS_P2;Temp;Humidity;BMP_temperature;BMP_pressure;BME280_temperature;BME280_humidity;BME280_pressure;Samples;Min_cycle;Max_cycle;Signal;HPM_P1;HPM_P2
2022/03/07 00:01:35;;;;;;;14.18;8.20;;;;;;;-0.40;61.60;101980.53;5035863;28;20076;-83
2022/03/07 00:04:02;;;;;;;15.43;9.07;;;;;;;-0.32;61.39;101972.53;5037367;28;20069;-83
2022/03/07 00:06:30;;;;;;;14.02;9.48;;;;;;;-0.43;62.16;101977.22;5037710;28;20094;-83
2022/03/07 00:08:57;;;;;;;11.80;8.82;;;;;;;-0.53;62.47;101976.72;5037144;28;20076;-85
2022/03/07 00:11:23;;;;;;;11.07;8.60;;;;;;;-0.60;62.60;101980.38;5035995;28;20132;-85
2022/03/07 00:13:50;;;;;;;18.85;8.98;;;;;;;-0.61;63.07;101981.28;5037152;28;20076;-85
2022/03/07 00:16:26;;;;;;;13.73;9.35;;;;;;;-0.68;63.31;101992.66;5037158;28;20077;-85
2022/03/07 00:18:53;;;;;;;12.60;9.23;;;;;;;-0.65;63.83;101989.97;5038479;28;20109;-85
2022/03/07 00:21:21;;;;;;;17.23;10.50;;;;;;;-0.65;63.75;101995.13;5039765;28;20457;-84
2022/03/07 00:23:49;;;;;;;14.00;10.10;;;;;;;-0.55;63.46;101993.09;5038611;28;20096;-85
2022/03/07 00:26:17;;;;;;;13.35;9.57;;;;;;;-0.59;63.46;101987.19;5039213;28;20060;-85
2022/03/07 00:28:44;;;;;;;16.83;10.00;;;;;;;-0.50;62.92;102004.06;5041253;28;20101;-84
2022/03/07 00:31:12;;;;;;;15.18;9.85;;;;;;;-0.53;63.37;101999.84;5040823;28;20107;-84
2022/03/07 00:33:38;;;;;;;14.15;9.60;;;;;;;-0.49;63.59;102001.44;5040703;28;20077;-84
2022/03/07 00:36:05;;;;;;;15.80;10.32;;;;;;;-0.52;64.04;102004.09;5041180;28;20073;-84
2022/03/07 00:38:33;;;;;;;14.98;10.10;;;;;;;-0.48;63.60;102005.69;5039758;28;20049;-84
2022/03/07 00:41:01;;;;;;;15.90;10.85;;;;;;;-0.49;63.70;102006.56;5040042;28;20101;-84
2022/03/07 00:43:31;;;;;;;14.20;9.85;;;;;;;-0.48;63.49;102013.41;5043169;28;20060;-84
2022/03/07 00:45:57;;;;;;;16.38;9.73;;;;;;;-0.43;63.51;102011.47;5043961;28;20153;-84
2022/03/07 00:48:24;;;;;;;14.98;9.95;;;;;;;-0.40;63.15;102019.09;5046274;28;20092;-85
2022/03/07 00:50:52;;;;;;;15.38;10.40;;;;;;;-0.40;63.40;102015.69;5045401;28;20498;-83
2022/03/07 00:53:22;;;;;;;14.27;10.15;;;;;;;-0.44;63.69;102009.81;5050125;28;20049;-85
2022/03/07 00:55:49;;;;;;;16.88;10.40;;;;;;;-0.40;64.21;102013.94;5053195;28;20041;-84
2022/03/07 00:58:17;;;;;;;17.23;10.60;;;;;;;-0.55;64.28;102001.63;5053878;28;20088;-85
2022/03/07 01:00:43;;;;;;;14.38;11.07;;;;;;;-0.54;64.78;102013.59;5047977;28;20109;-86
2022/03/07 01:03:12;;;;;;;14.88;10.95;;;;;;;-0.59;65.16;102010.34;5043044;28;20072;-84
2022/03/07 01:05:39;;;;;;;15.70;10.40;;;;;;;-0.54;64.81;101998.19;5042586;28;20085;-85
2022/03/07 01:08:07;;;;;;;16.40;11.27;;;;;;;-0.48;64.83;102008.25;5041229;28;20050;-84
2022/03/07 01:10:34;;;;;;;18.83;10.82;;;;;;;-0.59;65.09;102005.19;5042577;28;20107;-83
2022/03/07 01:13:02;;;;;;;19.20;11.13;;;;;;;-0.62;65.02;102005.31;5042535;28;20563;-84
2022/03/07 01:15:30;;;;;;;15.77;11.30;;;;;;;-0.70;65.61;102005.53;5040931;28;20089;-85
2022/03/07 01:17:59;;;;;;;16.00;10.98;;;;;;;-0.76;65.98;102003.19;5040629;28;20120;-85
2022/03/07 01:20:26;;;;;;;15.98;10.38;;;;;;;-0.83;66.84;102003.41;5040929;28;20068;-84
2022/03/07 01:22:53;;;;;;;14.90;11.07;;;;;;;-0.80;66.43;102011.03;5042001;28;20145;-85
2022/03/07 01:25:19;;;;;;;18.05;11.75;;;;;;;-0.82;67.25;102007.66;5040131;28;20068;-85
2022/03/07 01:27:47;;;;;;;16.95;10.90;;;;;;;-0.80;66.28;102000.75;5039195;28;20136;-84
2022/03/07 01:30:13;;;;;;;16.15;11.48;;;;;;;-0.80;66.89;102005.91;5041662;28;20053;-84
2022/03/07 01:32:41;;;;;;;18.15;11.30;;;;;;;-0.80;67.14;102003.31;5040768;28;20088;-84
2022/03/07 01:35:09;;;;;;;13.88;10.40;;;;;;;-0.70;66.94;101997.84;5041097;28;20346;-83
2022/03/07 01:37:35;;;;;;;16.25;11.07;;;;;;;-0.75;66.53;101989.44;5040421;28;20085;-84
2022/03/07 01:40:03;;;;;;;15.77;10.88;;;;;;;-0.73;65.84;101997.94;5040167;28;20049;-82
2022/03/07 01:42:30;;;;;;;15.50;11.25;;;;;;;-0.62;66.22;101992.44;5039988;28;20084;-84
2022/03/07 01:45:08;;;;;;;17.00;10.85;;;;;;;-0.62;65.76;101984.72;5039136;28;20045;-83
2022/03/07 01:47:34;;;;;;;22.48;10.70;;;;;;;-0.67;65.98;101984.88;5038761;28;20496;-84
2022/03/07 01:50:03;;;;;;;14.32;10.45;;;;;;;-0.68;66.48;101977.22;5037727;28;20055;-84
2022/03/07 01:52:30;;;;;;;19.05;10.77;;;;;;;-0.69;66.39;101978.94;5038489;28;20136;-81
2022/03/07 01:54:57;;;;;;;15.10;11.20;;;;;;;-0.59;66.50;101981.22;5036864;28;20050;-81
2022/03/07 01:57:24;;;;;;;15.77;11.20;;;;;;;-0.47;66.04;101979.06;5039850;28;20135;-83
2022/03/07 01:59:50;;;;;;;16.55;10.93;;;;;;;-0.71;66.24;101985.03;5041075;28;20124;-84
2022/03/07 02:02:17;;;;;;;18.42;10.98;;;;;;;-0.82;66.83;101980.25;5041964;28;20085;-82
2022/03/07 02:04:44;;;;;;;17.77;10.93;;;;;;;-0.91;67.34;101990.81;5050427;28;20080;-84
2022/03/07 02:07:12;;;;;;;16.95;11.05;;;;;;;-1.02;67.24;101980.06;5054595;28;20089;-84
2022/03/07 02:09:38;;;;;;;15.18;11.00;;;;;;;-1.10;68.89;101977.75;5053016;28;20555;-85
2022/03/07 02:12:05;;;;;;;17.85;11.40;;;;;;;-1.03;69.11;101984.38;5052950;28;20045;-84
2022/03/07 02:14:34;;;;;;;16.08;10.65;;;;;;;-1.20;69.80;101981.47;5048051;28;20092;-85
2022/03/07 02:17:01;;;;;;;15.90;10.95;;;;;;;-1.28;70.44;101983.44;5047990;28;20054;-85
2022/03/07 02:19:28;;;;;;;15.25;11.15;;;;;;;-1.33;71.06;101978.44;5045917;28;20453;-85
2022/03/07 02:22:03;;;;;;;14.50;11.15;;;;;;;-1.47;70.89;101978.06;5043851;28;20068;-83
2022/03/07 02:24:30;;;;;;;20.00;11.63;;;;;;;-1.39;70.20;101976.06;5043566;28;20100;-82
2022/03/07 02:26:57;;;;;;;16.90;11.85;;;;;;;-1.27;70.35;101985.13;5047578;28;20113;-83
2022/03/07 02:29:24;;;;;;;16.25;11.10;;;;;;;-1.23;69.44;101980.72;5047365;28;20077;-83
2022/03/07 02:31:51;;;;;;;15.40;11.35;;;;;;;-1.34;69.52;101981.06;5048000;28;20111;-84
2022/03/07 02:34:18;;;;;;;17.20;11.02;;;;;;;-1.31;69.03;101982.69;5043988;28;20556;-83
2022/03/07 02:36:45;;;;;;;18.20;11.55;;;;;;;-1.33;69.94;101980.16;5044895;28;20045;-82
2022/03/07 02:39:13;;;;;;;18.67;11.63;;;;;;;-1.42;69.86;101985.63;5044932;28;20113;-82
2022/03/07 02:41:40;;;;;;;19.17;12.35;;;;;;;-1.46;70.56;101979.72;5047606;28;20049;-83
2022/03/07 02:44:08;;;;;;;17.70;11.70;;;;;;;-1.46;70.59;101976.31;5054389;28;20053;-82
2022/03/07 02:46:35;;;;;;;18.42;11.82;;;;;;;-1.49;70.08;101981.53;5054103;28;20061;-82
2022/03/07 02:49:01;;;;;;;18.45;11.18;;;;;;;-1.58;70.80;101980.09;5047066;28;20092;-83
2022/03/07 02:51:28;;;;;;;16.95;11.40;;;;;;;-1.70;71.59;101983.84;5040797;28;20045;-83
2022/03/07 02:53:55;;;;;;;22.27;12.57;;;;;;;-1.69;71.08;101975.28;5042535;28;20073;-83
2022/03/07 02:56:22;;;;;;;17.30;11.77;;;;;;;-1.72;71.46;101985.63;5043651;28;20046;-83
2022/03/07 02:58:49;;;;;;;20.52;12.13;;;;;;;-1.88;72.42;101976.69;5041748;28;20583;-81
2022/03/07 03:01:16;;;;;;;18.08;11.43;;;;;;;-1.96;73.26;101977.81;5039243;28;20182;-82
2022/03/07 03:03:42;;;;;;;21.10;11.55;;;;;;;-1.95;73.82;101971.78;5040268;28;20049;-83
2022/03/07 03:06:10;;;;;;;17.50;11.20;;;;;;;-2.12;74.11;101973.09;5040920;28;20136;-83
2022/03/07 03:08:36;;;;;;;17.83;12.05;;;;;;;-2.15;74.24;101969.78;5042025;28;20228;-82
2022/03/07 03:11:03;;;;;;;18.65;11.57;;;;;;;-2.08;74.28;101963.59;5043106;28;20060;-83
2022/03/07 03:13:32;;;;;;;19.50;11.50;;;;;;;-2.21;74.59;101972.50;5042767;28;20109;-83
2022/03/07 03:15:58;;;;;;;20.45;11.98;;;;;;;-2.31;74.98;101968.50;5036168;28;20207;-82
2022/03/07 03:18:25;;;;;;;16.77;11.40;;;;;;;-2.37;75.50;101977.22;5040258;28;20079;-84
2022/03/07 03:20:53;;;;;;;22.23;13.30;;;;;;;-2.26;76.00;101984.59;5041856;28;20172;-83
2022/03/07 03:23:22;;;;;;;16.95;11.40;;;;;;;-2.17;75.60;101979.22;5040753;28;20480;-85
2022/03/07 03:25:49;;;;;;;18.45;11.68;;;;;;;-2.10;75.28;101980.75;5062788;23;20049;-83
2022/03/07 03:28:16;;;;;;;17.85;11.85;;;;;;;-2.14;76.08;101984.28;5036230;28;20061;-82
2022/03/07 03:30:44;;;;;;;19.73;12.35;;;;;;;-2.25;75.84;101991.41;5039176;28;20069;-82
2022/03/07 03:33:13;;;;;;;18.67;12.07;;;;;;;-2.40;75.88;101985.00;5039472;28;20240;-82
2022/03/07 03:35:40;;;;;;;18.17;12.20;;;;;;;-2.44;76.63;101994.47;5039087;28;20052;-82
2022/03/07 03:38:09;;;;;;;17.73;11.77;;;;;;;-2.47;77.25;101997.13;5035905;28;20132;-81
2022/03/07 03:40:36;;;;;;;16.27;11.68;;;;;;;-2.31;77.23;102001.81;5033959;28;20107;-84
2022/03/07 03:43:03;;;;;;;17.38;12.13;;;;;;;-2.40;77.26;101996.09;5034400;28;20046;-81
2022/03/07 03:45:30;;;;;;;20.30;12.25;;;;;;;-2.38;76.92;102001.19;5035205;28;20172;-82
2022/03/07 03:47:58;;;;;;;19.83;12.68;;;;;;;-2.40;77.32;102001.22;5034961;28;20490;-81
2022/03/07 03:50:25;;;;;;;19.85;12.73;;;;;;;-2.16;76.45;102015.09;5037942;28;20049;-82
2022/03/07 03:52:52;;;;;;;18.33;11.77;;;;;;;-2.27;76.45;102008.56;5038131;28;20136;-84
2022/03/07 03:55:19;;;;;;;19.42;11.88;;;;;;;-2.13;75.37;102009.03;5038523;28;20124;-83
2022/03/07 03:57:46;;;;;;;20.35;12.38;;;;;;;-2.26;75.26;102005.09;5038897;28;20076;-82
2022/03/07 04:00:18;;;;;;;19.15;12.20;;;;;;;-2.26;75.19;102005.09;5045432;28;20068;-85
2022/03/07 04:02:46;;;;;;;12.13;8.40;;;;;;;-2.30;75.44;102003.50;5039044;28;20132;-84
2022/03/07 04:05:18;;;;;;;17.92;11.38;;;;;;;-2.15;74.94;102005.66;5038193;28;20049;-83
2022/03/07 04:07:45;;;;;;;18.40;11.77;;;;;;;-2.12;75.34;102013.28;5039276;28;20049;-85
2022/03/07 04:10:14;;;;;;;17.58;11.57;;;;;;;-2.08;74.79;102015.72;5037163;28;20136;-82
2022/03/07 04:12:41;;;;;;;16.42;11.30;;;;;;;-1.99;74.38;102009.50;5038534;28;20046;-84
2022/03/07 04:15:08;;;;;;;16.80;11.43;;;;;;;-1.97;74.09;102014.59;5044351;28;20576;-84
2022/03/07 04:17:38;;;;;;;16.83;11.65;;;;;;;-2.04;74.02;102021.63;5046523;28;20057;-84
2022/03/07 04:20:06;;;;;;;18.65;12.50;;;;;;;-2.08;73.89;102020.00;5043442;28;20085;-83
2022/03/07 04:22:35;;;;;;;17.63;11.77;;;;;;;-2.12;73.67;102024.38;5042816;28;20364;-82
2022/03/07 04:25:01;;;;;;;16.77;11.20;;;;;;;-1.97;73.42;102023.13;5042086;28;20049;-83
2022/03/07 04:27:28;;;;;;;16.00;11.10;;;;;;;-1.99;72.65;102024.91;5042736;28;20105;-82
2022/03/07 04:29:55;;;;;;;18.75;11.75;;;;;;;-1.98;72.72;102028.31;5041536;28;20096;-82
2022/03/07 04:32:22;;;;;;;16.83;11.52;;;;;;;-2.02;73.31;102030.13;5043216;28;20101;-80
2022/03/07 04:34:49;;;;;;;15.80;10.63;;;;;;;-2.09;73.37;102024.31;5041984;28;20049;-80
2022/03/07 04:37:15;;;;;;;15.73;10.48;;;;;;;-2.05;72.63;102025.06;5041719;28;20112;-83
2022/03/07 04:39:43;;;;;;;17.48;10.68;;;;;;;-2.13;73.06;102027.00;5041855;28;20138;-83
2022/03/07 04:42:12;;;;;;;15.75;10.30;;;;;;;-2.21;73.26;102042.56;5041981;28;20096;-83
2022/03/07 04:44:38;;;;;;;14.70;10.07;;;;;;;-2.21;72.65;102040.00;5042150;28;20049;-82
2022/03/07 04:47:05;;;;;;;16.90;10.90;;;;;;;-2.33;73.53;102040.31;5043610;28;20085;-82
2022/03/07 04:49:32;;;;;;;15.45;10.55;;;;;;;-2.42;73.70;102043.16;5043399;28;20088;-84
2022/03/07 04:51:58;;;;;;;15.07;10.15;;;;;;;-2.34;72.99;102026.66;5043658;28;20050;-84
2022/03/07 04:54:25;;;;;;;14.70;10.35;;;;;;;-2.28;72.75;102035.91;5043596;28;20088;-84
2022/03/07 04:56:54;;;;;;;14.63;10.18;;;;;;;-2.33;72.68;102040.31;5044393;28;20105;-83
2022/03/07 04:59:21;;;;;;;16.50;10.20;;;;;;;-2.19;72.44;102039.97;5043307;28;20065;-84
2022/03/07 05:01:47;;;;;;;17.98;10.43;;;;;;;-2.22;72.04;102038.31;5053676;28;20057;-85
2022/03/07 05:04:14;;;;;;;15.60;10.32;;;;;;;-2.46;72.91;102027.00;5045487;28;20080;-85
2022/03/07 05:06:41;;;;;;;14.00;9.73;;;;;;;-2.39;73.43;102032.81;5044678;28;20077;-82
2022/03/07 05:09:07;;;;;;;13.15;9.73;;;;;;;-2.40;73.51;102029.41;5045833;28;20069;-82
2022/03/07 05:11:34;;;;;;;15.00;9.93;;;;;;;-2.57;73.75;102030.69;5052034;28;20057;-83
2022/03/07 05:14:02;;;;;;;13.40;10.25;;;;;;;-2.51;74.49;102035.69;5053552;28;20067;-83
2022/03/07 05:16:29;;;;;;;14.70;10.00;;;;;;;-2.57;74.50;102039.22;5051543;28;20077;-82
2022/03/07 05:18:55;;;;;;;14.35;9.40;;;;;;;-2.59;74.41;102033.31;5051464;28;20105;-82
2022/03/07 05:21:22;;;;;;;13.85;9.82;;;;;;;-2.57;75.09;102048.66;5050128;28;20037;-83
2022/03/07 05:23:49;;;;;;;14.65;10.18;;;;;;;-2.66;75.09;102044.56;5044197;28;20115;-82
2022/03/07 05:26:16;;;;;;;16.42;10.15;;;;;;;-2.60;74.95;102047.00;5044409;28;20063;-82
2022/03/07 05:28:42;;;;;;;17.38;10.25;;;;;;;-2.57;75.50;102052.03;5051274;28;20467;-80
2022/03/07 05:31:13;;;;;;;14.48;10.07;;;;;;;-2.61;76.03;102045.31;5056338;28;20033;-81
2022/03/07 05:33:40;;;;;;;14.73;10.18;;;;;;;-2.68;75.95;102060.00;5052723;28;20053;-83
2022/03/07 05:36:07;;;;;;;15.43;10.85;;;;;;;-2.70;76.53;102060.91;5053209;28;20084;-83
2022/03/07 05:38:35;;;;;;;15.00;9.85;;;;;;;-2.67;76.68;102056.53;5052575;28;20041;-81
2022/03/07 05:41:01;;;;;;;14.60;10.05;;;;;;;-2.74;76.88;102046.47;5051392;28;20045;-81
2022/03/07 05:43:28;;;;;;;20.98;10.30;;;;;;;-2.76;76.13;102061.88;5050183;28;20084;-85
2022/03/07 05:45:55;;;;;;;15.05;10.32;;;;;;;-2.73;76.35;102045.59;5044781;28;20050;-85
2022/03/07 05:48:23;;;;;;;18.40;10.70;;;;;;;-2.55;75.73;102052.84;5042270;28;20080;-86
2022/03/07 05:50:50;;;;;;;15.73;10.82;;;;;;;-2.46;75.06;102051.78;5042889;28;20049;-85
2022/03/07 05:53:21;;;;;;;21.98;9.88;;;;;;;-2.40;74.21;102049.91;5042525;28;20073;-85
2022/03/07 05:55:48;;;;;;;15.00;9.90;;;;;;;-2.41;74.02;102053.34;5042312;28;20053;-84
2022/03/07 05:58:15;;;;;;;14.23;10.02;;;;;;;-2.48;74.09;102044.13;5041110;28;20057;-84
2022/03/07 06:00:41;;;;;;;14.82;9.57;;;;;;;-2.45;74.35;102056.88;5042226;28;20076;-83
2022/03/07 06:03:11;;;;;;;14.05;9.93;;;;;;;-2.61;74.39;102055.56;5048820;28;20061;-83
2022/03/07 06:05:39;;;;;;;16.45;10.43;;;;;;;-2.75;75.01;102048.19;5044178;28;20069;-81
2022/03/07 06:08:06;;;;;;;15.10;10.35;;;;;;;-2.76;75.39;102061.03;5044723;28;20068;-80
2022/03/07 06:10:33;;;;;;;13.63;9.85;;;;;;;-2.72;74.43;102048.13;5049605;28;20063;-81
2022/03/07 06:12:59;;;;;;;13.38;9.30;;;;;;;-2.80;74.40;102052.59;5047244;28;20096;-82
2022/03/07 06:15:26;;;;;;;13.75;9.18;;;;;;;-2.64;73.45;102055.63;5038046;28;20105;-82
2022/03/07 06:17:54;;;;;;;14.80;9.30;;;;;;;-2.38;72.04;102057.56;5039078;28;20108;-82
2022/03/07 06:20:22;;;;;;;16.58;9.98;;;;;;;-2.29;71.91;102056.47;5045032;28;20449;-81
2022/03/07 06:22:50;;;;;;;12.55;8.77;;;;;;;-2.19;70.91;102053.63;5048563;28;20056;-82
2022/03/07 06:25:17;;;;;;;13.30;8.45;;;;;;;-2.05;70.37;102053.28;5046645;28;20050;-83
2022/03/07 06:27:44;;;;;;;13.38;8.80;;;;;;;-1.96;69.65;102055.59;5047134;28;20120;-82
2022/03/07 06:30:11;;;;;;;11.32;7.97;;;;;;;-1.85;68.73;102052.72;5050876;28;20049;-83
2022/03/07 06:32:38;;;;;;;14.30;7.72;;;;;;;-1.82;68.29;102065.47;5048298;28;20092;-81
2022/03/07 06:35:06;;;;;;;13.10;8.60;;;;;;;-1.79;68.18;102073.91;5052183;28;20064;-85
2022/03/07 06:37:33;;;;;;;14.48;8.68;;;;;;;-1.73;67.79;102071.19;5055596;28;20049;-85
2022/03/07 06:40:01;;;;;;;14.15;8.20;;;;;;;-1.65;67.02;102070.97;5054129;28;20044;-82
2022/03/07 06:42:27;;;;;;;10.68;7.78;;;;;;;-1.55;66.39;102071.56;5055428;28;20084;-83
2022/03/07 06:44:54;;;;;;;13.18;7.82;;;;;;;-1.16;65.33;102074.69;5055271;28;20092;-83
2022/03/07 06:47:20;;;;;;;11.05;7.45;;;;;;;-0.46;62.44;102073.31;5054907;28;20069;-82
2022/03/07 06:49:51;;;;;;;11.15;7.78;;;;;;;0.34;60.10;102071.41;5052425;28;20050;-81
2022/03/07 06:52:18;;;;;;;9.63;7.32;;;;;;;1.00;57.74;102068.00;5044836;28;20073;-80
2022/03/07 06:54:44;;;;;;;9.77;7.38;;;;;;;1.44;56.25;102067.97;5046542;28;20060;-81
2022/03/07 06:57:12;;;;;;;9.40;7.05;;;;;;;1.85;58.06;102073.19;5051586;28;20076;-82
2022/03/07 06:59:39;;;;;;;9.63;6.65;;;;;;;2.50;54.96;102066.88;5042228;28;20084;-81
2022/03/07 07:02:06;;;;;;;19.60;8.50;;;;;;;1.99;53.93;102060.50;5042661;28;20510;-81
2022/03/07 07:04:32;;;;;;;11.57;7.22;;;;;;;1.79;54.73;102068.28;5042414;28;20092;-82
2022/03/07 07:06:59;;;;;;;10.65;7.63;;;;;;;2.30;54.30;102067.78;5042888;28;20072;-81
2022/03/07 07:09:25;;;;;;;16.00;7.82;;;;;;;2.70;52.17;102069.41;5042689;28;20087;-82
2022/03/07 07:11:52;;;;;;;11.85;6.75;;;;;;;2.63;51.80;102070.56;5037965;28;20132;-83
2022/03/07 07:14:20;;;;;;;11.52;7.00;;;;;;;2.52;51.73;102072.81;5037498;28;20136;-82
2022/03/07 07:16:47;;;;;;;9.60;7.28;;;;;;;2.61;51.28;102077.56;5038996;28;20174;-81
2022/03/07 07:19:13;;;;;;;24.48;7.72;;;;;;;2.80;50.76;102083.56;5039708;28;20109;-82
2022/03/07 07:21:40;;;;;;;10.75;7.05;;;;;;;2.90;50.51;102074.47;5038136;28;20160;-82
2022/03/07 07:24:21;;;;;;;9.63;6.68;;;;;;;2.69;50.71;102084.97;5039893;28;20084;-83
2022/03/07 07:26:59;;;;;;;12.52;7.18;;;;;;;3.08;49.40;102059.84;5039663;28;20462;-82
2022/03/07 07:29:39;;;;;;;10.95;6.82;;;;;;;3.24;49.14;102083.22;5024930;28;20105;-82
2022/03/07 07:32:23;;;;;;;9.82;6.68;;;;;;;3.60;47.63;102063.31;5040510;28;20566;-82
2022/03/07 07:35:01;;;;;;;;;;;;;;;3.51;48.24;102084.47;5040448;28;20515;-82
2022/03/07 07:37:36;;;;;;;9.98;6.60;;;;;;;3.48;47.52;102089.78;5039915;28;20011;-83
2022/03/07 07:40:26;;;;;;;8.45;6.60;;;;;;;3.78;47.00;102089.22;5038897;28;20072;-81
2022/03/07 07:43:19;;;;;;;8.80;6.68;;;;;;;4.22;45.87;102076.56;5040176;28;20112;-83
2022/03/07 07:45:53;;;;;;;;;;;;;;;3.09;48.50;102095.13;5040081;28;20047;-82
2022/03/07 07:48:43;;;;;;;8.90;6.38;;;;;;;2.90;48.66;102097.72;5020730;28;19960;-82
2022/03/07 07:51:21;;;;;;;9.60;6.80;;;;;;;2.41;49.57;102095.69;5043426;28;20050;-83
2022/03/07 07:54:06;;;;;;;9.65;6.88;;;;;;;2.41;50.50;102090.53;5027198;28;20066;-82
2022/03/07 07:56:48;;;;;;;12.75;7.10;;;;;;;2.97;49.34;102099.13;5025036;28;20046;-84
2022/03/07 07:59:15;;;;;;;14.27;8.38;;;;;;;2.15;50.59;102087.34;5027974;28;20056;-82
2022/03/07 08:02:11;;;;;;;9.55;6.95;;;;;;;2.26;50.72;102085.16;5045890;28;20053;-83
2022/03/07 08:04:43;;;;;;;7.97;6.53;;;;;;;2.49;49.29;102091.03;5044540;28;20484;-81
2022/03/07 08:07:13;;;;;;;9.75;6.75;;;;;;;2.17;50.57;102072.63;5046618;28;20053;-84
2022/03/07 08:09:40;;;;;;;12.93;6.45;;;;;;;2.60;49.76;102093.97;5046090;28;20415;-83
2022/03/07 08:12:11;;;;;;;9.10;6.82;;;;;;;3.27;47.75;102101.19;5047445;28;20455;-82
2022/03/07 08:14:47;;;;;;;8.90;7.03;;;;;;;3.77;46.69;102108.25;5046122;28;20079;-83
2022/03/07 08:17:15;;;;;;;9.63;6.88;;;;;;;3.48;46.17;102097.56;5045413;28;20112;-81
2022/03/07 08:19:44;;;;;;;10.18;7.28;;;;;;;3.13;48.01;102098.41;5046440;28;20054;-82
2022/03/07 08:22:10;;;;;;;10.65;7.20;;;;;;;3.11;48.96;102097.66;5046718;28;20057;-81
2022/03/07 08:24:37;;;;;;;10.52;8.63;;;;;;;3.57;47.82;102102.28;5047514;28;20132;-83
2022/03/07 08:27:04;;;;;;;8.60;6.50;;;;;;;3.30;47.60;102101.06;5049223;28;20076;-83
2022/03/07 08:29:31;;;;;;;9.13;6.50;;;;;;;3.80;46.92;102095.13;5047341;28;20046;-83
2022/03/07 08:32:00;;;;;;;10.00;6.63;;;;;;;4.27;45.70;102096.13;5044811;28;20088;-81
2022/03/07 08:34:32;;;;;;;9.95;6.53;;;;;;;4.02;46.15;102095.72;5044981;28;20054;-80
2022/03/07 08:37:10;;;;;;;10.18;7.03;;;;;;;3.43;47.06;102096.94;5043442;28;20136;-83
2022/03/07 08:39:38;;;;;;;8.98;6.65;;;;;;;3.39;47.10;102079.88;5045188;28;20049;-82
2022/03/07 08:42:13;;;;;;;9.70;6.80;;;;;;;3.89;46.20;102094.66;5046384;28;20053;-83
2022/03/07 08:44:40;;;;;;;10.85;7.10;;;;;;;3.91;46.01;102093.66;5044996;28;20053;-82
2022/03/07 08:47:07;;;;;;;9.50;6.50;;;;;;;3.84;46.06;102094.06;5044190;28;20084;-82
2022/03/07 08:49:34;;;;;;;8.88;5.80;;;;;;;3.54;47.02;102083.47;5045785;28;20065;-83
2022/03/07 08:52:17;;;;;;;7.97;6.35;;;;;;;3.59;46.51;102076.31;5046082;28;20049;-81
2022/03/07 08:54:47;;;;;;;7.57;6.10;;;;;;;4.13;44.82;102080.47;5046561;28;20506;-82
2022/03/07 08:57:14;;;;;;;8.70;6.38;;;;;;;3.36;46.40;102074.84;5046568;28;20072;-82
2022/03/07 08:59:41;;;;;;;8.52;6.68;;;;;;;3.27;47.06;102077.91;5044970;28;20042;-83
2022/03/07 09:02:09;;;;;;;7.65;6.68;;;;;;;3.88;45.84;102087.81;5044511;28;20045;-83
2022/03/07 09:04:36;;;;;;;8.68;6.50;;;;;;;3.07;47.36;102063.34;5044818;28;20131;-82
2022/03/07 09:07:03;;;;;;;7.93;6.20;;;;;;;2.91;47.82;102072.72;5044811;28;20108;-85
2022/03/07 09:09:30;;;;;;;10.40;6.47;;;;;;;3.81;46.12;102083.84;5042785;28;20104;-82
2022/03/07 09:12:03;;;;;;;8.90;6.63;;;;;;;3.52;45.77;102062.84;5045127;28;20053;-82
2022/03/07 09:14:31;;;;;;;9.27;6.28;;;;;;;3.31;46.73;102090.59;5048212;28;20060;-83
2022/03/07 09:16:58;;;;;;;9.35;6.47;;;;;;;3.74;45.97;102087.69;5049988;28;20053;-82
2022/03/07 09:19:25;;;;;;;9.90;6.30;;;;;;;3.04;46.84;102091.09;5049471;28;20063;-83
2022/03/07 09:21:52;;;;;;;9.23;6.65;;;;;;;3.26;47.46;102089.16;5046740;28;20077;-83
2022/03/07 09:24:20;;;;;;;8.63;6.35;;;;;;;3.03;48.08;102087.66;5050464;28;20053;-83
2022/03/07 09:26:47;;;;;;;11.73;6.68;;;;;;;2.79;48.77;102088.81;5053835;28;20049;-84
2022/03/07 09:29:21;;;;;;;8.52;7.00;;;;;;;2.78;48.90;102095.72;5051997;28;20084;-83
2022/03/07 09:31:50;;;;;;;12.05;6.68;;;;;;;3.10;48.40;102093.38;5049243;28;20042;-84
2022/03/07 09:34:17;;;;;;;9.02;6.90;;;;;;;3.10;48.33;102098.56;5046139;28;20045;-84
2022/03/07 09:36:44;;;;;;;8.82;6.72;;;;;;;3.02;48.59;102080.81;5045610;28;20050;-83
2022/03/07 09:39:11;;;;;;;9.55;7.13;;;;;;;3.27;48.10;102083.09;5045355;28;20104;-83
2022/03/07 09:41:39;;;;;;;8.23;7.03;;;;;;;3.23;47.92;102078.97;5044484;28;20479;-81
2022/03/07 09:44:12;;;;;;;10.35;7.10;;;;;;;3.04;49.00;102079.00;5043837;28;20461;-81
2022/03/07 09:46:42;;;;;;;14.52;7.00;;;;;;;3.17;48.34;102079.25;5042288;28;20069;-83
2022/03/07 09:49:12;;;;;;;11.60;7.00;;;;;;;3.16;48.21;102077.59;5041044;28;20463;-81
2022/03/07 09:51:38;;;;;;;11.20;7.32;;;;;;;3.08;48.73;102074.50;5044578;28;20058;-82
2022/03/07 09:54:07;;;;;;;8.43;6.70;;;;;;;3.31;48.27;102076.81;5043233;28;20084;-82
2022/03/07 09:56:34;;;;;;;7.82;6.30;;;;;;;3.13;48.85;102068.22;5040195;28;20068;-81
2022/03/07 09:59:06;;;;;;;10.52;6.72;;;;;;;3.42;48.47;102061.63;5039442;28;20060;-82
2022/03/07 10:01:35;;;;;;;9.02;6.90;;;;;;;3.37;48.14;102063.59;5042816;28;20053;-80
2022/03/07 10:04:13;;;;;;;9.63;6.95;;;;;;;3.37;47.82;102049.81;5042454;28;20049;-81
2022/03/07 10:06:51;;;;;;;12.95;7.15;;;;;;;3.19;48.33;102051.56;5041320;28;20519;-80
2022/03/07 10:09:22;;;;;;;7.57;6.32;;;;;;;3.10;47.87;102045.09;5040286;28;20056;-84
2022/03/07 10:11:54;;;;;;;9.13;6.53;;;;;;;3.51;47.61;102045.66;5042144;28;20099;-81
2022/03/07 10:14:31;;;;;;;9.70;6.28;;;;;;;3.46;48.12;102047.63;5041918;28;20053;-82
2022/03/07 10:16:58;;;;;;;8.20;6.28;;;;;;;3.50;47.92;102028.44;5040376;28;20065;-81
2022/03/07 10:19:28;;;;;;;8.93;6.82;;;;;;;3.56;47.65;102025.56;5041683;28;20073;-81
2022/03/07 10:21:55;;;;;;;8.70;7.00;;;;;;;3.70;47.35;102042.16;5043288;28;20463;-82
2022/03/07 10:24:34;;;;;;;9.68;6.97;;;;;;;3.63;46.38;102024.34;5044356;28;20164;-81
2022/03/07 10:27:02;;;;;;;10.38;6.60;;;;;;;3.54;46.85;102024.78;5041836;28;20125;-81
2022/03/07 10:29:29;;;;;;;7.47;6.53;;;;;;;3.95;46.40;102045.16;5041371;28;20101;-80
2022/03/07 10:31:58;;;;;;;9.13;6.40;;;;;;;3.99;46.48;102050.09;5040996;28;20052;-81
2022/03/07 10:34:30;;;;;;;9.70;6.97;;;;;;;3.92;46.86;102022.00;5042781;28;20052;-81
2022/03/07 10:36:57;;;;;;;9.52;6.93;;;;;;;4.12;46.24;102028.75;5042931;28;20065;-80
2022/03/07 10:39:26;;;;;;;9.48;7.03;;;;;;;3.87;46.79;102021.38;5041431;28;20073;-83
2022/03/07 10:41:54;;;;;;;9.60;6.90;;;;;;;3.98;46.38;102019.09;5041900;28;20077;-82
2022/03/07 10:44:34;;;;;;;14.80;7.20;;;;;;;4.06;45.68;102032.47;5042362;28;20060;-79
2022/03/07 10:47:14;;;;;;;10.43;6.45;;;;;;;3.98;45.81;102021.69;5043735;28;20049;-82
2022/03/07 10:49:51;;;;;;;8.98;6.80;;;;;;;4.05;45.98;102025.63;5040950;28;20049;-80
2022/03/07 10:52:19;;;;;;;11.60;6.90;;;;;;;4.37;45.90;102021.31;5041776;28;20071;-83
2022/03/07 10:54:49;;;;;;;8.80;6.55;;;;;;;4.36;45.99;102031.78;5040021;28;20083;-83
2022/03/07 10:57:20;;;;;;;10.63;7.03;;;;;;;3.99;45.96;102010.41;5047327;28;20060;-81
2022/03/07 10:59:48;;;;;;;9.00;6.60;;;;;;;3.99;46.21;102013.00;5041416;28;20095;-81
2022/03/07 11:02:17;;;;;;;10.18;6.85;;;;;;;4.00;46.52;102004.31;5052934;28;20049;-82
2022/03/07 11:04:45;;;;;;;10.85;6.70;;;;;;;4.40;45.99;102022.91;5052388;28;20064;-82
2022/03/07 11:07:29;;;;;;;8.35;6.47;;;;;;;4.34;45.77;102004.19;5052816;28;20118;-81
2022/03/07 11:10:00;;;;;;;9.32;7.10;;;;;;;4.98;44.60;102011.03;5052377;28;20076;-84
2022/03/07 11:15:41;;;;;;;9.48;7.03;;;;;;;4.76;44.24;102000.16;5050669;28;20045;-87
2022/03/07 11:18:40;;;;;;;7.82;6.65;;;;;;;4.89;45.10;101992.53;5048941;28;20060;-84
2022/03/07 11:21:52;;;;;;;8.35;6.53;;;;;;;5.10;44.77;101982.72;5055919;28;20070;-85
2022/03/07 11:24:57;;;;;;;7.72;6.25;;;;;;;5.13;43.96;101966.97;5059840;28;20060;-87
2022/03/07 11:27:38;;;;;;;10.35;6.50;;;;;;;4.87;43.55;101989.19;5055516;28;20068;-83
2022/03/07 11:30:43;;;;;;;8.38;6.50;;;;;;;4.85;44.00;101963.34;5053676;28;20068;-84
2022/03/07 11:35:56;;;;;;;11.17;6.60;;;;;;;5.41;44.63;101961.84;5052084;28;20075;-81